createdAt,value
2022-10-01T00:00:56.306Z,8.80
2022-10-01T00:04:01.880Z,8.70
2022-10-01T00:07:09.428Z,8.65
2022-10-01T00:10:14.147Z,8.73
2022-10-01T00:13:16.470Z,9.55
2022-10-01T00:16:25.199Z,8.90
2022-10-01T00:19:28.568Z,8.60
2022-10-01T00:22:36.359Z,8.50
2022-10-01T00:25:39.517Z,8.88
2022-10-01T00:28:44.038Z,9.23
2022-10-01T00:31:46.331Z,8.98
2022-10-01T00:34:49.139Z,8.32
2022-10-01T00:37:59.618Z,9.13
2022-10-01T00:41:04.189Z,8.50
2022-10-01T00:44:32.466Z,9.52
2022-10-01T00:47:42.263Z,9.43
2022-10-01T00:50:48.214Z,8.73
2022-10-01T00:53:51.234Z,8.27
2022-10-01T00:56:55.865Z,8.55
2022-10-01T01:00:02.835Z,9.07
2022-10-01T01:03:06.493Z,8.90
2022-10-01T01:06:09.868Z,9.05
2022-10-01T01:09:12.399Z,8.95
2022-10-01T01:12:36.170Z,8.70
2022-10-01T01:15:47.327Z,8.70
2022-10-01T01:19:08.957Z,8.55
2022-10-01T01:22:13.482Z,8.65
2022-10-01T01:25:32.377Z,7.65
2022-10-01T01:28:45.598Z,8.98
2022-10-01T01:31:49.014Z,8.68
2022-10-01T01:34:54.168Z,9.07
2022-10-01T01:38:03.971Z,9.07
2022-10-01T01:41:07.985Z,8.55
2022-10-01T01:44:12.886Z,8.65
2022-10-01T01:47:15.388Z,8.20
2022-10-01T01:50:18.810Z,8.70
2022-10-01T01:53:21.360Z,8.82
2022-10-01T01:56:24.052Z,9.40
2022-10-01T01:59:27.242Z,8.55
2022-10-01T02:02:37.637Z,8.75
2022-10-01T02:05:57.202Z,8.32
2022-10-01T02:09:15.800Z,8.35
2022-10-01T02:12:50.124Z,8.75
2022-10-01T02:15:59.807Z,8.90
2022-10-01T02:19:22.519Z,10.15
2022-10-01T02:22:41.379Z,9.68
2022-10-01T02:28:52.744Z,11.15
2022-10-01T02:31:57.310Z,11.35
2022-10-01T02:35:01.050Z,10.70
2022-10-01T02:38:07.278Z,11.93
2022-10-01T02:41:13.913Z,10.82
2022-10-01T02:44:21.214Z,10.35
2022-10-01T02:47:45.088Z,11.48
2022-10-01T02:51:15.756Z,11.85
2022-10-01T02:54:27.617Z,11.70
2022-10-01T02:57:32.339Z,11.90
2022-10-01T03:00:34.870Z,10.35
2022-10-01T03:03:39.107Z,11.50
2022-10-01T03:06:41.296Z,11.57
2022-10-01T03:09:43.917Z,10.77
2022-10-01T03:12:46.846Z,11.30
2022-10-01T03:15:50.091Z,10.93
2022-10-01T03:18:52.345Z,11.27
2022-10-01T03:21:56.450Z,10.70
2022-10-01T03:24:59.098Z,9.65
2022-10-01T03:28:01.840Z,10.82
2022-10-01T03:31:08.875Z,10.73
2022-10-01T03:34:13.291Z,10.15
2022-10-01T03:37:15.521Z,10.95
2022-10-01T03:40:17.976Z,10.18
2022-10-01T03:43:20.469Z,11.02
2022-10-01T03:46:26.346Z,10.55
2022-10-01T03:49:29.047Z,10.35
2022-10-01T03:52:31.620Z,9.88
2022-10-01T03:55:33.917Z,11.25
2022-10-01T03:58:36.463Z,11.30
2022-10-01T04:01:39.526Z,10.77
2022-10-01T04:04:42.341Z,10.10
2022-10-01T04:07:45.161Z,10.35
2022-10-01T04:10:48.805Z,10.38
2022-10-01T04:13:51.147Z,9.75
2022-10-01T04:16:53.802Z,10.55
2022-10-01T04:19:57.775Z,10.50
2022-10-01T04:23:00.827Z,11.65
2022-10-01T04:26:03.620Z,10.65
2022-10-01T04:29:06.297Z,10.40
2022-10-01T04:32:08.538Z,9.88
2022-10-01T04:35:12.044Z,10.13
2022-10-01T04:38:16.831Z,9.70
2022-10-01T04:41:19.804Z,10.88
2022-10-01T04:44:22.020Z,9.88
2022-10-01T04:47:24.670Z,9.70
2022-10-01T04:50:27.991Z,9.70
2022-10-01T04:53:30.616Z,9.68
2022-10-01T04:56:32.850Z,9.07
2022-10-01T04:59:35.485Z,9.43
2022-10-01T05:02:37.990Z,9.68
2022-10-01T05:05:43.169Z,9.30
2022-10-01T05:08:45.359Z,9.18
2022-10-01T05:11:51.957Z,9.32
2022-10-01T05:14:55.656Z,9.88
2022-10-01T05:17:58.252Z,9.27
2022-10-01T05:21:05.431Z,9.07
2022-10-01T05:24:08.205Z,9.23
2022-10-01T05:27:12.224Z,9.77
2022-10-01T05:30:23.932Z,9.98
2022-10-01T05:33:27.124Z,9.73
2022-10-01T05:36:29.658Z,10.55
2022-10-01T05:39:32.992Z,9.65
2022-10-01T05:42:37.564Z,10.10
2022-10-01T05:45:39.893Z,9.30
2022-10-01T05:48:42.480Z,9.05
2022-10-01T05:51:44.902Z,9.02
2022-10-01T05:54:47.357Z,9.80
2022-10-01T05:58:04.641Z,10.07
2022-10-01T06:01:07.323Z,9.50
2022-10-01T06:04:10.666Z,9.77
2022-10-01T06:07:13.335Z,8.57
2022-10-01T06:10:16.959Z,9.32
2022-10-01T06:13:19.295Z,8.13
2022-10-01T06:16:22.356Z,8.50
2022-10-01T06:19:24.714Z,8.30
2022-10-01T06:22:27.829Z,9.27
2022-10-01T06:25:30.816Z,8.55
2022-10-01T06:28:33.791Z,8.63
2022-10-01T06:31:36.537Z,8.90
2022-10-01T06:34:41.168Z,9.43
2022-10-01T06:37:43.532Z,9.30
2022-10-01T06:41:02.434Z,10.07
2022-10-01T06:44:05.035Z,9.00
2022-10-01T06:47:08.178Z,9.77
2022-10-01T06:50:11.537Z,10.48
2022-10-01T06:53:15.888Z,11.12
2022-10-01T06:56:18.173Z,10.73
2022-10-01T06:59:22.261Z,9.05
2022-10-01T07:02:28.957Z,9.57
2022-10-01T07:05:31.861Z,9.90
2022-10-01T07:08:34.298Z,9.90
2022-10-01T07:11:41.900Z,9.90
2022-10-01T07:14:44.313Z,10.43
2022-10-01T07:17:51.270Z,11.48
2022-10-01T07:20:53.675Z,9.50
2022-10-01T07:23:56.829Z,9.93
2022-10-01T07:27:01.606Z,10.30
2022-10-01T07:30:07.294Z,10.07
2022-10-01T07:33:10.187Z,10.68
2022-10-01T07:36:13.823Z,10.73
2022-10-01T07:39:16.361Z,9.20
2022-10-01T07:42:18.977Z,10.00
2022-10-01T07:45:23.275Z,9.68
2022-10-01T07:48:26.887Z,10.25
2022-10-01T07:51:29.328Z,10.75
2022-10-01T07:54:32.119Z,9.70
2022-10-01T07:57:35.157Z,10.63
2022-10-01T08:00:38.647Z,9.68
2022-10-01T08:03:41.340Z,10.15
2022-10-01T08:06:43.665Z,9.98
2022-10-01T08:09:46.321Z,10.75
2022-10-01T08:12:48.611Z,10.20
2022-10-01T08:15:53.717Z,10.43
2022-10-01T08:18:56.217Z,10.68
2022-10-01T08:21:58.781Z,10.75
2022-10-01T08:25:01.089Z,10.63
2022-10-01T08:28:05.585Z,10.43
2022-10-01T08:31:09.942Z,9.75
2022-10-01T08:34:14.722Z,10.10
2022-10-01T08:37:16.982Z,11.20
2022-10-01T08:40:21.695Z,10.80
2022-10-01T08:43:42.436Z,10.77
2022-10-01T08:46:46.200Z,11.05
2022-10-01T08:49:54.402Z,11.30
2022-10-01T08:53:02.634Z,10.07
2022-10-01T08:56:08.056Z,11.70
2022-10-01T08:59:18.313Z,11.88
2022-10-01T09:02:27.483Z,11.32
2022-10-01T09:05:51.963Z,11.70
2022-10-01T09:09:23.776Z,11.63
2022-10-01T09:13:14.578Z,14.02
2022-10-01T09:16:24.714Z,12.57
2022-10-01T09:19:56.912Z,13.80
2022-10-01T09:23:17.193Z,14.68
2022-10-01T09:26:23.614Z,13.98
2022-10-01T09:29:41.650Z,14.43
2022-10-01T09:33:02.492Z,16.12
2022-10-01T09:36:18.654Z,15.10
2022-10-01T09:39:34.840Z,15.52
2022-10-01T09:42:37.110Z,16.98
2022-10-01T09:45:40.364Z,15.43
2022-10-01T09:49:09.436Z,15.27
2022-10-01T09:55:40.753Z,16.17
2022-10-01T09:58:50.540Z,14.60
2022-10-01T10:02:05.992Z,15.80
2022-10-01T10:05:13.299Z,14.82
2022-10-01T10:08:40.367Z,15.00
2022-10-01T10:11:44.578Z,14.90
2022-10-01T10:14:49.822Z,14.93
2022-10-01T10:17:55.886Z,14.82
2022-10-01T10:21:01.789Z,13.90
2022-10-01T10:24:07.182Z,14.43
2022-10-01T10:27:27.217Z,13.73
2022-10-01T10:30:31.298Z,12.37
2022-10-01T10:33:37.871Z,12.73
2022-10-01T10:36:43.292Z,12.02
2022-10-01T10:39:51.323Z,13.55
2022-10-01T10:46:00.366Z,11.88
2022-10-01T10:49:15.830Z,12.55
2022-10-01T10:52:29.810Z,12.32
2022-10-01T10:55:32.573Z,11.45
2022-10-01T10:58:40.390Z,11.75
2022-10-01T11:01:43.309Z,11.68
2022-10-01T11:04:46.451Z,10.80
2022-10-01T11:07:55.451Z,9.55
2022-10-01T11:14:29.285Z,5.90
2022-10-01T11:17:50.731Z,5.60
2022-10-01T11:20:54.458Z,5.45
2022-10-01T11:24:29.674Z,4.85
2022-10-01T11:27:44.716Z,4.37
2022-10-01T11:31:02.614Z,3.70
2022-10-01T11:34:23.922Z,3.70
2022-10-01T11:41:38.642Z,3.92
2022-10-01T11:44:49.696Z,4.35
2022-10-01T11:48:12.730Z,4.37
2022-10-01T11:51:27.316Z,4.07
2022-10-01T11:54:35.028Z,3.78
2022-10-01T11:57:56.715Z,4.75
2022-10-01T12:01:07.650Z,4.45
2022-10-01T12:04:22.269Z,3.40
2022-10-01T12:07:56.352Z,3.30
2022-10-01T12:11:20.379Z,3.20
2022-10-01T12:14:31.640Z,3.30
2022-10-01T12:17:44.505Z,3.53
2022-10-01T12:21:11.934Z,3.37
2022-10-01T12:24:28.107Z,3.10
2022-10-01T12:27:55.371Z,2.85
2022-10-01T12:31:30.309Z,2.92
2022-10-01T12:34:56.533Z,2.80
2022-10-01T12:38:14.044Z,2.42
2022-10-01T12:41:43.575Z,2.37
2022-10-01T12:45:12.789Z,2.40
2022-10-01T12:48:25.092Z,2.60
2022-10-01T12:51:57.406Z,2.62
2022-10-01T12:55:23.652Z,2.55
2022-10-01T12:58:36.640Z,2.60
2022-10-01T13:01:48.553Z,2.55
2022-10-01T13:04:51.248Z,2.65
2022-10-01T13:08:02.403Z,2.67
2022-10-01T13:11:24.236Z,2.50
2022-10-01T13:14:28.424Z,2.45
2022-10-01T13:17:42.557Z,2.33
2022-10-01T13:20:55.546Z,2.35
2022-10-01T13:24:12.406Z,2.70
2022-10-01T13:27:31.224Z,2.75
2022-10-01T13:31:00.901Z,2.72
2022-10-01T13:34:34.134Z,2.40
2022-10-01T13:37:40.540Z,2.40
2022-10-01T13:40:44.361Z,2.55
2022-10-01T13:43:56.861Z,2.50
2022-10-01T13:47:10.014Z,2.55
2022-10-01T13:50:24.255Z,2.95
2022-10-01T13:53:28.164Z,3.45
2022-10-01T13:56:38.637Z,1.62
2022-10-01T13:59:41.584Z,3.12
2022-10-01T14:02:59.094Z,3.50
2022-10-01T14:06:05.240Z,4.30
2022-10-01T14:09:35.825Z,4.70
2022-10-01T14:13:02.593Z,4.18
2022-10-01T14:16:05.554Z,4.62
2022-10-01T14:19:09.708Z,4.60
2022-10-01T14:22:36.836Z,4.40
2022-10-01T14:26:03.256Z,4.05
2022-10-01T14:29:06.108Z,5.93
2022-10-01T14:32:16.266Z,6.82
2022-10-01T14:35:33.569Z,6.43
2022-10-01T14:38:36.089Z,6.82
2022-10-01T14:41:38.238Z,7.05
2022-10-01T14:44:43.799Z,7.40
2022-10-01T14:47:48.871Z,7.43
2022-10-01T14:50:54.428Z,7.57
2022-10-01T14:54:00.622Z,7.68
2022-10-01T14:57:10.184Z,7.43
2022-10-01T15:00:26.438Z,7.53
2022-10-01T15:03:38.576Z,7.72
2022-10-01T15:06:43.642Z,7.75
2022-10-01T15:09:46.976Z,7.80
2022-10-01T15:12:52.050Z,8.32
2022-10-01T15:15:56.030Z,9.00
2022-10-01T15:19:01.519Z,9.18
2022-10-01T15:22:04.239Z,8.27
2022-10-01T15:25:06.964Z,7.93
2022-10-01T15:28:25.075Z,7.93
2022-10-01T15:31:27.466Z,8.35
2022-10-01T15:34:30.651Z,7.05
2022-10-01T15:37:37.443Z,7.85
2022-10-01T15:40:42.662Z,6.53
2022-10-01T15:43:45.260Z,6.53
2022-10-01T15:46:47.847Z,6.30
2022-10-01T15:50:08.508Z,6.18
2022-10-01T15:53:21.812Z,5.47
2022-10-01T15:56:24.893Z,5.65
2022-10-01T15:59:27.501Z,4.60
2022-10-01T16:02:32.139Z,4.65
2022-10-01T16:05:46.806Z,4.70
2022-10-01T16:08:55.349Z,4.35
2022-10-01T16:12:04.037Z,4.30
2022-10-01T16:15:24.137Z,3.58
2022-10-01T16:18:32.772Z,2.80
2022-10-01T16:21:40.584Z,3.15
2022-10-01T16:24:48.062Z,2.72
2022-10-01T16:28:03.861Z,2.85
2022-10-01T16:31:06.553Z,2.40
2022-10-01T16:34:11.880Z,2.78
2022-10-01T16:37:14.571Z,2.45
2022-10-01T16:40:21.746Z,2.50
2022-10-01T16:43:24.348Z,2.67
2022-10-01T16:46:26.506Z,3.28
2022-10-01T16:49:28.965Z,2.58
2022-10-01T16:52:31.101Z,2.80
2022-10-01T16:55:38.008Z,2.00
2022-10-01T16:58:41.598Z,2.40
2022-10-01T17:01:44.812Z,2.95
2022-10-01T17:04:46.964Z,3.20
2022-10-01T17:07:49.586Z,3.28
2022-10-01T17:10:58.441Z,3.65
2022-10-01T17:14:03.023Z,2.97
2022-10-01T17:17:05.269Z,3.35
2022-10-01T17:20:09.265Z,2.55
2022-10-01T17:23:13.863Z,2.65
2022-10-01T17:26:16.429Z,2.78
2022-10-01T17:29:18.592Z,2.60
2022-10-01T17:32:21.094Z,2.30
2022-10-01T17:35:23.363Z,2.67
2022-10-01T17:38:25.960Z,1.83
2022-10-01T17:41:28.270Z,1.75
2022-10-01T17:44:31.189Z,1.50
2022-10-01T17:47:33.845Z,1.70
2022-10-01T17:50:44.652Z,3.90
2022-10-01T17:53:48.045Z,3.20
2022-10-01T17:56:54.968Z,2.90
2022-10-01T17:59:57.256Z,2.90
2022-10-01T18:03:02.841Z,1.80
2022-10-01T18:06:05.750Z,2.55
2022-10-01T18:09:08.023Z,2.87
2022-10-01T18:12:10.733Z,3.15
2022-10-01T18:15:13.827Z,3.50
2022-10-01T18:19:43.186Z,3.42
2022-10-01T18:21:38.692Z,2.62
2022-10-01T18:24:44.671Z,3.55
2022-10-01T18:27:50.152Z,3.05
2022-10-01T18:31:11.069Z,3.30
2022-10-01T18:34:47.512Z,2.47
2022-10-01T18:37:56.252Z,2.45
2022-10-01T18:41:08.514Z,2.33
2022-10-01T18:44:19.995Z,2.72
2022-10-01T18:47:58.949Z,2.72
2022-10-01T18:51:38.880Z,2.03
2022-10-01T18:55:10.178Z,2.35
2022-10-01T18:58:47.080Z,1.70
2022-10-01T19:02:17.185Z,1.75
2022-10-01T19:05:57.877Z,1.55
2022-10-01T19:12:46.825Z,1.80
2022-10-01T19:15:55.175Z,1.83
2022-10-01T19:18:57.810Z,2.28
2022-10-01T19:22:18.156Z,2.53
2022-10-01T19:25:45.276Z,2.03
2022-10-01T19:29:09.931Z,2.40
2022-10-01T19:32:16.392Z,2.30
2022-10-01T19:35:32.142Z,2.55
2022-10-01T19:38:39.921Z,3.03
2022-10-01T19:41:52.603Z,3.17
2022-10-01T19:45:23.517Z,2.80
2022-10-01T19:48:44.320Z,3.00
2022-10-01T19:51:59.021Z,3.67
2022-10-01T19:55:01.739Z,3.00
2022-10-01T19:58:18.967Z,2.90
2022-10-01T20:01:28.078Z,3.22
2022-10-01T20:04:58.440Z,3.50
2022-10-01T20:08:07.879Z,3.40
2022-10-01T20:11:33.144Z,3.45
2022-10-01T20:15:09.595Z,3.78
2022-10-01T20:18:18.133Z,3.55
2022-10-01T20:21:36.445Z,3.90
2022-10-01T20:24:42.579Z,3.85
2022-10-01T20:27:49.495Z,3.78
2022-10-01T20:31:04.314Z,4.15
2022-10-01T20:34:27.623Z,4.10
2022-10-01T20:37:57.046Z,3.40
2022-10-01T20:41:06.375Z,3.87
2022-10-01T20:44:15.555Z,3.40
2022-10-01T20:47:31.443Z,3.42
2022-10-01T20:50:51.972Z,2.90
2022-10-01T20:53:58.938Z,3.80
2022-10-01T20:57:29.535Z,3.45
2022-10-01T21:00:32.692Z,3.70
2022-10-01T21:03:44.023Z,3.17
2022-10-01T21:06:55.087Z,3.10
2022-10-01T21:10:03.161Z,3.47
2022-10-01T21:13:17.229Z,3.30
2022-10-01T21:16:41.542Z,3.25
2022-10-01T21:19:47.012Z,3.60
2022-10-01T21:23:01.843Z,3.40
2022-10-01T21:26:31.495Z,3.22
2022-10-01T21:29:40.064Z,3.55
2022-10-01T21:33:14.708Z,3.62
2022-10-01T21:36:38.596Z,3.50
2022-10-01T21:39:43.777Z,3.22
2022-10-01T21:43:20.977Z,3.15
2022-10-01T21:46:33.842Z,3.00
2022-10-01T21:49:45.764Z,3.00
2022-10-01T21:52:57.495Z,2.80
2022-10-01T21:56:37.278Z,2.90
2022-10-01T22:00:12.527Z,3.15
2022-10-01T22:03:43.140Z,3.10
2022-10-01T22:06:52.796Z,2.92
2022-10-01T22:10:01.646Z,3.10
2022-10-01T22:13:11.523Z,2.58
2022-10-01T22:16:17.024Z,2.78
2022-10-01T22:19:31.513Z,2.50
2022-10-01T22:22:40.557Z,2.62
2022-10-01T22:25:51.832Z,2.65
2022-10-01T22:28:58.013Z,2.42
2022-10-01T22:32:04.182Z,2.40
2022-10-01T22:35:43.032Z,2.08
2022-10-01T22:38:54.071Z,2.30
2022-10-01T22:42:05.652Z,2.42
2022-10-01T22:45:17.835Z,2.22
2022-10-01T22:48:46.718Z,2.30
2022-10-01T22:52:04.301Z,2.75
2022-10-01T22:55:25.239Z,2.50
2022-10-01T22:58:53.118Z,2.50
2022-10-01T23:02:07.572Z,2.10
2022-10-01T23:05:22.336Z,2.15
2022-10-01T23:08:49.713Z,2.10
2022-10-01T23:12:08.585Z,2.08
2022-10-01T23:18:29.329Z,1.67
2022-10-01T23:22:01.188Z,1.75
2022-10-01T23:25:35.877Z,1.62
2022-10-01T23:28:45.415Z,1.70
2022-10-01T23:32:07.852Z,1.90
2022-10-01T23:35:20.841Z,1.67
2022-10-01T23:38:32.252Z,1.92
2022-10-01T23:41:50.123Z,2.10
2022-10-01T23:45:16.214Z,2.03
2022-10-01T23:48:30.970Z,1.65
2022-10-01T23:51:52.337Z,1.92
2022-10-01T23:55:20.209Z,1.92
2022-10-01T23:58:25.077Z,1.83
